createdAt,value
2022-11-30T04:18:24.414Z,4.90
2022-11-30T07:23:14.011Z,9.83
2022-11-30T08:21:29.190Z,12.80
2022-11-30T08:25:50.250Z,12.83
2022-11-30T08:40:02.349Z,14.07
2022-11-30T09:16:49.273Z,13.90
2022-11-30T09:21:05.790Z,14.73
2022-11-30T09:25:16.171Z,13.70
2022-11-30T09:29:29.210Z,12.93
2022-11-30T09:33:51.709Z,13.47
2022-11-30T09:38:08.552Z,12.50
2022-11-30T09:42:57.873Z,13.73
2022-11-30T09:47:25.029Z,13.67
2022-11-30T09:51:46.073Z,14.63
2022-11-30T09:56:12.850Z,13.27
2022-11-30T10:00:24.239Z,15.10
2022-11-30T10:04:36.036Z,13.63
2022-11-30T10:08:55.971Z,13.23
2022-11-30T10:13:25.332Z,13.63
2022-11-30T10:17:52.473Z,14.20
2022-11-30T10:26:50.489Z,14.17
2022-11-30T10:31:03.417Z,12.50
2022-11-30T10:35:23.690Z,11.93
2022-11-30T10:39:57.552Z,12.10
2022-11-30T10:44:15.654Z,12.37
2022-11-30T10:48:32.929Z,12.90
2022-11-30T10:52:51.228Z,12.57
2022-11-30T10:57:17.633Z,12.10
2022-11-30T11:01:45.939Z,11.80
2022-11-30T11:06:21.349Z,12.00
2022-11-30T11:10:38.110Z,11.80
2022-11-30T11:14:49.451Z,12.23
2022-11-30T11:18:59.675Z,12.53
2022-11-30T11:23:21.588Z,12.00
2022-11-30T11:27:33.221Z,13.23
2022-11-30T11:31:48.016Z,13.60
2022-11-30T11:36:15.252Z,13.10
2022-11-30T11:40:26.307Z,12.43
2022-11-30T11:44:36.127Z,12.73
2022-11-30T12:46:07.629Z,10.43
2022-11-30T12:50:56.988Z,9.77
2022-11-30T13:05:13.696Z,7.97
2022-11-30T13:09:35.210Z,7.53
2022-11-30T13:18:42.247Z,7.77
2022-11-30T13:42:37.532Z,6.83
2022-11-30T13:51:41.291Z,6.90
2022-11-30T14:06:10.570Z,11.57
2022-11-30T14:10:44.833Z,11.03
2022-11-30T14:15:00.932Z,11.00
2022-11-30T14:19:13.231Z,11.03
2022-11-30T14:23:27.652Z,14.13
2022-11-30T14:27:38.590Z,12.50
2022-11-30T14:31:56.229Z,11.93
2022-11-30T14:36:21.510Z,10.90
2022-11-30T14:40:32.887Z,12.17
2022-11-30T14:44:45.166Z,13.77
2022-11-30T14:49:14.328Z,13.03
2022-11-30T14:53:32.990Z,12.13
2022-11-30T14:57:50.712Z,11.63
2022-11-30T15:02:04.118Z,12.17
2022-11-30T15:06:18.769Z,12.90
2022-11-30T15:10:32.828Z,13.57
2022-11-30T15:14:42.089Z,11.27
2022-11-30T15:18:53.928Z,11.17
2022-11-30T15:23:03.529Z,11.67
2022-11-30T15:27:21.429Z,12.60
2022-11-30T15:31:36.673Z,15.37
2022-11-30T15:36:14.190Z,12.20
2022-11-30T15:40:30.468Z,13.07
2022-11-30T15:44:47.670Z,13.73
2022-11-30T15:49:08.710Z,12.60
2022-11-30T15:53:36.887Z,13.73
2022-11-30T15:58:00.590Z,13.10
2022-11-30T16:02:28.010Z,13.80
2022-11-30T16:06:46.993Z,12.87
2022-11-30T16:15:39.509Z,12.90
2022-11-30T16:19:49.263Z,13.67
2022-11-30T16:23:59.150Z,13.13
2022-11-30T16:28:10.827Z,12.53
2022-11-30T16:32:23.687Z,12.10
2022-11-30T16:36:36.107Z,10.70
2022-11-30T16:40:46.729Z,10.00
2022-11-30T16:44:57.549Z,9.33
2022-11-30T16:49:07.390Z,8.60
2022-11-30T16:53:17.066Z,8.70
2022-11-30T16:57:26.487Z,7.70
2022-11-30T17:01:44.145Z,8.33
2022-11-30T17:05:55.975Z,8.63
2022-11-30T17:10:07.449Z,8.37
2022-11-30T17:14:21.789Z,7.30
2022-11-30T17:18:32.709Z,7.90
2022-11-30T17:22:45.175Z,7.37
2022-11-30T17:26:56.451Z,7.43
2022-11-30T17:36:18.690Z,7.17
2022-11-30T18:05:03.968Z,6.40
2022-11-30T18:14:18.309Z,5.80
2022-11-30T18:18:48.187Z,6.53
2022-11-30T18:23:00.950Z,6.30
2022-11-30T18:27:10.169Z,6.33
2022-11-30T18:31:19.804Z,7.93
2022-11-30T18:44:59.325Z,8.23
2022-11-30T18:49:10.350Z,9.13
2022-11-30T18:53:20.271Z,8.60
2022-11-30T18:57:31.369Z,6.43
2022-11-30T19:01:41.341Z,7.03
2022-11-30T19:05:51.067Z,8.53
2022-11-30T19:10:00.628Z,7.80
2022-11-30T19:14:18.990Z,7.30
2022-11-30T19:18:28.868Z,7.90
2022-11-30T19:22:48.867Z,9.83
2022-11-30T19:26:58.407Z,8.40
2022-11-30T19:31:31.526Z,8.10
2022-11-30T19:35:44.531Z,8.13
2022-11-30T19:39:59.167Z,8.53
2022-11-30T19:44:28.369Z,8.57
2022-11-30T19:53:18.549Z,10.37
2022-11-30T19:57:29.490Z,8.47
2022-11-30T20:01:43.160Z,8.53
2022-11-30T20:05:54.728Z,8.60
2022-11-30T20:10:04.019Z,8.47
2022-11-30T20:14:22.851Z,10.77
2022-11-30T20:18:40.113Z,9.97
2022-11-30T20:22:53.928Z,9.70
2022-11-30T20:27:04.666Z,10.17
2022-11-30T20:31:17.947Z,8.87
2022-11-30T20:35:31.426Z,9.63
2022-11-30T20:39:54.091Z,10.57
2022-11-30T20:44:04.040Z,9.67
2022-11-30T20:48:14.726Z,8.87
2022-11-30T20:52:28.791Z,9.33
2022-11-30T20:56:40.709Z,9.90
2022-11-30T21:00:50.227Z,10.60
2022-11-30T21:05:02.766Z,12.07
2022-11-30T21:09:14.106Z,12.07
2022-11-30T21:13:25.968Z,13.33
2022-11-30T21:17:35.688Z,13.57
2022-11-30T21:21:45.571Z,13.13
2022-11-30T21:25:56.208Z,13.20
2022-11-30T21:34:51.171Z,13.03
2022-11-30T21:48:58.250Z,15.63
2022-11-30T21:53:07.706Z,15.03
2022-11-30T21:57:16.910Z,14.27
2022-11-30T22:01:41.027Z,13.30
2022-11-30T22:10:38.491Z,15.23
2022-11-30T22:15:01.769Z,13.83
2022-11-30T22:19:11.525Z,13.93
2022-11-30T22:23:36.750Z,13.80
2022-11-30T22:28:02.127Z,14.10
2022-11-30T22:32:16.074Z,15.43
2022-11-30T22:36:27.987Z,16.70
2022-11-30T22:40:42.568Z,15.00
2022-11-30T22:45:16.087Z,14.73
2022-11-30T22:49:27.099Z,14.90
2022-11-30T22:53:54.748Z,17.23
2022-11-30T22:58:13.029Z,17.93
2022-11-30T23:02:25.434Z,18.30
2022-11-30T23:06:45.205Z,18.03
2022-11-30T23:10:59.944Z,19.03
2022-11-30T23:15:10.369Z,21.57
2022-11-30T23:19:23.607Z,19.70
2022-11-30T23:23:34.727Z,24.13
2022-11-30T23:27:45.488Z,22.23
2022-11-30T23:31:58.862Z,23.67
2022-11-30T23:36:10.846Z,24.43
2022-11-30T23:40:20.986Z,23.90
2022-11-30T23:44:31.506Z,28.23
2022-11-30T23:48:42.105Z,27.87
2022-11-30T23:52:53.047Z,26.67
2022-11-30T23:57:02.625Z,25.97
